Airfield :
LOGIN :

Register | Disclaimer

   EN    FR    IT 

 










Legend :    VFR   Marginal VFR   IFR   Intensive IFR   Very Intensive IFR
Visi :
Ceiling :
>= 8 km
>= 3000ft
5 to 8 km
1000 to 3000 ft
1500m to 5 km
500 to 1000 ft
800 to 1500m
200 to 500 ft
< 800m
< 200 ft
Symbols :   Thunderstorms  Fog  Heavy snow  Heavy precipitations  Wind > 20 kt
SIGMETs :     Misc.  Thunderstorms  Icing  Turbulence  Mountain Waves  Volcanic Ashes







- Airport Elevation : 1079 ft


ETIK - Illesheim Air Base

CURRENT METAR :
  • 191156Z AUTO 00000KT 9999 CLR 15/01 A3038 RMK AO2 SLP295 T01450007 10148 20019 58004 $

EXPIRED METARs :
  • 191056Z AUTO 30004KT 9999 SCT049 14/01 A3039 RMK AO2 SLP298 T01370010 $
  • 190956Z AUTO 06005KT 9999 BKN042 13/02 A3040 RMK AO2 SLP302 T01260024 $

TAF TAF ETIK
Valid from the 19 at 06:00 until the 20 at 12:00 UTC


190607Z 1906/2012 VRB06KT 9999 FEW040 QNH3031INS
BECMG 1910/1911 VRB06KT 9999 SCT050 QNH3034INS TX15/1914Z TN00/1906Z
No reported NOTAMs for that airfield.



MET'MAP, your aeronautical weather chart ! - Copyright ORBIFLY December 2007 - Disclaimer

ORBIFLY MET'MAP TEAM :

Programming & Development : Alexandra Zaïnal
Concept & Development : Baudouin d'Aumeries
Co-Development & Prog : Marc-Olivier Méhu
Technical & hardware support : Manuel Goepfert

Contact : metmap@orbifly.com




SOURCES & CREDITS :

   NOAA